This is the latest recevied weather packets stored in our database for station/object BadBuchau. If no packets are shown the sender has not sent any weather packets the latest 10 day(s).
| Time | Temp. | Humidity | Pressure | Rain* | Wind** | Luminosity | Snow |
|---|---|---|---|---|---|---|---|
| 1777757530 | 14.44° C | 60% | 1015.5 hPa | 0 mm | - | - | - |
| 1777755729 | 15° C | 55% | 1015.6 hPa | 0 mm | - | - | - |
| 1777753930 | 16.67° C | 52% | 1015.8 hPa | 0 mm | - | - | - |
| 1777752130 | 17.78° C | 47% | 1016 hPa | 0 mm | - | - | - |
| 1777750335 | 19.44° C | 42% | 1016 hPa | 0 mm | - | - | - |
| 1777748537 | 21.11° C | 38% | 1015.8 hPa | 0 mm | - | - | - |
| 1777746730 | 22.22° C | 30% | 1015.6 hPa | 0 mm | - | - | - |
| 1777744931 | 23.33° C | 28% | 1015.6 hPa | 0 mm | - | - | - |
| 1777743130 | 24.44° C | 25% | 1015.7 hPa | 0 mm | - | - | - |
| 1777741330 | 25° C | 24% | 1015.8 hPa | 0 mm | - | - | - |
| 1777739530 | 24.44° C | 23% | 1016.1 hPa | 0 mm | - | - | - |
| 1777737733 | 25.56° C | 23% | 1016.5 hPa | 0 mm | - | - | - |
| 1777735930 | 23.89° C | 25% | 1017 hPa | 0 mm | - | - | - |
| 1777734130 | 23.89° C | 25% | 1017.5 hPa | 0 mm | - | - | - |
| 1777732330 | 24.44° C | 24% | 1017.7 hPa | 0 mm | - | - | - |
| 1777730530 | 24.44° C | 25% | 1018.1 hPa | 0 mm | - | - | - |
| 1777728731 | 23.89° C | 27% | 1018.3 hPa | 0 mm | - | - | - |
| 1777726930 | 24.44° C | 27% | 1018.8 hPa | 0 mm | - | - | - |
| 1777725131 | 23.33° C | 27% | 1019.2 hPa | 0 mm | - | - | - |
| 1777723330 | 23.33° C | 28% | 1019.6 hPa | 0 mm | - | - | - |
| 1777721531 | 22.78° C | 30% | 1020 hPa | 0 mm | - | - | - |
| 1777719730 | 21.67° C | 30% | 1020.3 hPa | 0 mm | - | - | - |
| 1777717930 | 21.67° C | 27% | 1020.7 hPa | 0 mm | - | - | - |
| 1777716131 | 20.56° C | 35% | 1021.1 hPa | 0 mm | - | - | - |
| 1777714331 | 18.89° C | 45% | 1021.5 hPa | 0 mm | - | - | - |
* Rain since midnight (hover to see other rain measurements)
** Current wind speed in m/s (hover to see current wind gust speed)